createdAt,value
2019-05-29T00:00:00.870Z,73.97
2019-05-29T00:02:46.937Z,74.15
2019-05-29T00:05:33.015Z,74.03
2019-05-29T00:08:19.122Z,74.83
2019-05-29T00:11:06.331Z,76.02
2019-05-29T00:13:52.565Z,76.96
2019-05-29T00:16:38.693Z,77.45
2019-05-29T00:19:24.891Z,77.85
2019-05-29T00:22:10.980Z,77.78
2019-05-29T00:24:57.299Z,78.01
2019-05-29T00:27:43.250Z,78.28
2019-05-29T00:30:29.588Z,78.39
2019-05-29T00:33:15.640Z,79.23
2019-05-29T00:36:01.816Z,78.97
2019-05-29T00:38:47.965Z,78.91
2019-05-29T00:41:34.133Z,78.64
2019-05-29T00:44:33.529Z,78.87
2019-05-29T00:47:09.445Z,78.94
2019-05-29T00:49:55.855Z,79.17
2019-05-29T00:52:41.964Z,78.93
2019-05-29T00:55:28.234Z,79.32
2019-05-29T00:58:14.907Z,79.43
2019-05-29T01:01:01.267Z,80.22
2019-05-29T01:03:47.555Z,80.65
2019-05-29T01:06:33.683Z,80.31
2019-05-29T01:09:20.780Z,80.38
2019-05-29T01:12:07.021Z,82.18
2019-05-29T01:14:53.150Z,82.37
2019-05-29T01:17:39.251Z,81.97
2019-05-29T01:20:25.460Z,81.58
2019-05-29T01:23:12.126Z,81.49
2019-05-29T01:25:58.490Z,81.17
2019-05-29T01:28:44.516Z,82.07
2019-05-29T01:31:30.770Z,82.03
2019-05-29T01:34:17.633Z,82.29
2019-05-29T01:37:03.707Z,82.76
2019-05-29T01:39:50.016Z,82.73
2019-05-29T01:42:36.150Z,82.68
2019-05-29T01:45:22.249Z,83.31
2019-05-29T01:48:09.545Z,83.16
2019-05-29T01:50:55.735Z,83.55
2019-05-29T01:53:41.785Z,83.50
2019-05-29T01:56:28.092Z,83.82
2019-05-29T01:59:14.030Z,83.63
2019-05-29T02:02:00.143Z,83.67
2019-05-29T02:04:46.170Z,84.10
2019-05-29T02:07:32.276Z,84.35
2019-05-29T02:10:18.440Z,83.99
2019-05-29T02:13:04.670Z,84.13
2019-05-29T02:15:50.855Z,84.29
2019-05-29T02:18:37.113Z,84.36
2019-05-29T02:21:24.159Z,84.68
2019-05-29T02:24:10.231Z,84.54
2019-05-29T02:26:56.395Z,84.44
2019-05-29T02:29:42.480Z,84.51
2019-05-29T02:32:28.637Z,84.61
2019-05-29T02:35:14.941Z,84.72
2019-05-29T02:38:00.905Z,85.26
2019-05-29T02:40:47.055Z,85.67
2019-05-29T02:43:33.457Z,85.72
2019-05-29T02:46:20.031Z,85.95
2019-05-29T02:49:07.795Z,85.88
2019-05-29T02:51:54.217Z,85.99
2019-05-29T02:54:40.147Z,86.01
2019-05-29T02:57:26.917Z,86.15
2019-05-29T03:00:14.251Z,86.33
2019-05-29T03:03:00.173Z,86.27
2019-05-29T03:05:46.366Z,86.54
2019-05-29T03:08:34.353Z,86.66
2019-05-29T03:11:20.635Z,86.77
2019-05-29T03:14:06.731Z,86.41
2019-05-29T03:16:53.275Z,86.36
2019-05-29T03:19:39.092Z,85.76
2019-05-29T03:22:26.296Z,85.97
2019-05-29T03:25:12.582Z,85.88
2019-05-29T03:27:58.826Z,85.59
2019-05-29T03:30:46.062Z,85.26
2019-05-29T03:33:43.558Z,84.71
2019-05-29T03:36:21.264Z,82.75
2019-05-29T03:39:07.341Z,81.33
2019-05-29T03:41:53.543Z,79.56
2019-05-29T03:44:39.632Z,77.30
2019-05-29T03:47:26.933Z,75.75
2019-05-29T03:50:15.789Z,74.49
2019-05-29T03:53:01.623Z,73.73
2019-05-29T03:55:47.727Z,72.86
2019-05-29T03:58:35.117Z,71.84
2019-05-29T04:01:22.121Z,70.40
2019-05-29T04:04:08.232Z,69.27
2019-05-29T04:06:54.625Z,69.46
2019-05-29T04:09:40.645Z,68.19
2019-05-29T04:12:27.022Z,68.23
2019-05-29T04:15:14.937Z,67.22
2019-05-29T04:18:03.044Z,65.33
2019-05-29T04:20:51.108Z,65.21
2019-05-29T04:23:38.272Z,62.49
2019-05-29T04:26:25.012Z,63.76
2019-05-29T04:29:10.881Z,65.47
2019-05-29T04:31:57.052Z,63.06
2019-05-29T04:34:43.357Z,62.27
2019-05-29T04:37:30.304Z,63.65
2019-05-29T04:40:16.645Z,61.92
2019-05-29T04:43:02.724Z,60.49
2019-05-29T04:45:48.650Z,59.27
2019-05-29T04:48:36.237Z,57.12
2019-05-29T04:51:23.228Z,58.22
2019-05-29T04:54:09.360Z,60.04
2019-05-29T04:56:55.543Z,59.97
2019-05-29T04:59:41.687Z,57.55
2019-05-29T05:02:28.835Z,57.34
2019-05-29T05:05:15.420Z,55.85
2019-05-29T05:08:01.585Z,56.04
2019-05-29T05:10:47.675Z,54.06
2019-05-29T05:13:34.076Z,54.06
2019-05-29T05:16:20.173Z,52.31
2019-05-29T05:19:06.412Z,48.93
2019-05-29T05:21:52.580Z,50.84
2019-05-29T05:24:43.497Z,51.28
2019-05-29T05:27:26.788Z,49.78
2019-05-29T05:30:12.971Z,50.30
2019-05-29T05:32:59.074Z,49.91
2019-05-29T05:35:45.255Z,50.07
2019-05-29T05:38:32.823Z,48.00
2019-05-29T05:41:18.948Z,49.51
2019-05-29T05:44:05.143Z,48.67
2019-05-29T05:46:51.156Z,47.05
2019-05-29T05:49:37.423Z,46.55
2019-05-29T05:52:25.616Z,47.47
2019-05-29T05:55:12.286Z,48.12
2019-05-29T05:57:58.612Z,47.54
2019-05-29T06:00:44.822Z,45.35
2019-05-29T06:03:31.836Z,43.53
2019-05-29T06:06:18.242Z,45.40
2019-05-29T06:09:06.322Z,44.34
2019-05-29T06:11:52.428Z,44.78
2019-05-29T06:14:38.660Z,46.22
2019-05-29T06:17:24.836Z,45.00
2019-05-29T06:20:11.363Z,49.06
2019-05-29T06:22:57.222Z,46.41
2019-05-29T06:25:43.930Z,46.22
2019-05-29T06:28:30.076Z,43.61
2019-05-29T06:31:16.250Z,46.00
2019-05-29T06:34:02.565Z,44.46
2019-05-29T06:36:48.678Z,48.92
2019-05-29T06:39:35.558Z,46.61
2019-05-29T06:42:21.911Z,48.88
2019-05-29T06:45:08.957Z,49.65
2019-05-29T06:47:55.602Z,45.70
2019-05-29T06:50:43.432Z,44.76
2019-05-29T06:53:29.960Z,43.08
2019-05-29T06:56:16.803Z,47.33
2019-05-29T06:59:04.061Z,46.04
2019-05-29T07:01:50.074Z,44.85
2019-05-29T07:04:36.289Z,46.40
2019-05-29T07:07:22.416Z,44.66
2019-05-29T07:10:08.643Z,43.50
2019-05-29T07:12:54.662Z,40.92
2019-05-29T07:15:40.998Z,40.89
2019-05-29T07:18:27.289Z,44.83
2019-05-29T07:21:13.542Z,42.80
2019-05-29T07:23:59.875Z,43.95
2019-05-29T07:26:47.237Z,40.88
2019-05-29T07:29:33.661Z,44.59
2019-05-29T07:32:19.894Z,44.67
2019-05-29T07:35:06.520Z,44.27
2019-05-29T07:37:52.596Z,43.75
2019-05-29T07:40:40.496Z,44.90
2019-05-29T07:43:26.907Z,46.03
2019-05-29T07:46:13.121Z,41.35
2019-05-29T07:48:59.753Z,41.79
2019-05-29T07:51:47.010Z,42.18
2019-05-29T07:54:33.585Z,42.54
2019-05-29T07:57:19.841Z,42.27
2019-05-29T08:00:06.495Z,42.72
2019-05-29T08:02:52.568Z,42.25
2019-05-29T08:05:41.463Z,44.84
2019-05-29T08:08:29.108Z,44.84
2019-05-29T08:11:15.138Z,48.36
2019-05-29T08:14:01.323Z,45.22
2019-05-29T08:16:48.087Z,43.82
2019-05-29T08:19:34.656Z,42.79
2019-05-29T08:22:33.782Z,42.79
2019-05-29T08:25:09.520Z,43.42
2019-05-29T08:27:55.651Z,40.20
2019-05-29T08:30:47.369Z,41.46
2019-05-29T08:33:30.346Z,41.66
2019-05-29T08:36:16.791Z,42.07
2019-05-29T08:39:05.015Z,43.82
2019-05-29T08:42:17.754Z,46.90
2019-05-29T08:44:39.260Z,45.56
2019-05-29T08:47:25.381Z,44.24
2019-05-29T08:50:18.742Z,45.37
2019-05-29T08:53:02.492Z,45.70
2019-05-29T08:55:48.976Z,44.30
2019-05-29T08:58:37.317Z,39.68
2019-05-29T09:01:23.855Z,39.68
2019-05-29T09:04:09.882Z,36.36
2019-05-29T09:06:56.023Z,37.08
2019-05-29T09:09:42.914Z,37.65
2019-05-29T09:12:30.103Z,37.69
2019-05-29T09:15:21.060Z,38.71
2019-05-29T09:18:05.226Z,38.65
2019-05-29T09:21:02.869Z,41.06
2019-05-29T09:23:40.386Z,42.24
2019-05-29T09:26:26.896Z,40.54
2019-05-29T09:29:17.756Z,41.81
2019-05-29T09:32:01.471Z,43.20
2019-05-29T09:34:47.803Z,43.48
2019-05-29T09:37:34.430Z,41.54
2019-05-29T09:40:20.992Z,45.33
2019-05-29T09:43:07.257Z,43.04
2019-05-29T09:45:53.451Z,41.46
2019-05-29T09:48:49.113Z,40.55
2019-05-29T09:51:27.821Z,39.57
2019-05-29T09:54:14.030Z,42.25
2019-05-29T09:57:01.113Z,41.72
2019-05-29T09:59:47.541Z,44.69
2019-05-29T10:02:33.897Z,40.91
2019-05-29T10:05:19.994Z,42.53
2019-05-29T10:08:06.337Z,40.19
2019-05-29T10:11:02.707Z,40.53
2019-05-29T10:13:41.110Z,41.43
2019-05-29T10:16:27.249Z,45.34
2019-05-29T10:19:13.846Z,41.83
2019-05-29T10:22:02.016Z,40.70
2019-05-29T10:24:48.416Z,42.17
2019-05-29T10:27:34.561Z,40.62
2019-05-29T10:30:20.745Z,41.71
2019-05-29T10:33:06.738Z,41.37
2019-05-29T10:35:55.368Z,40.55
2019-05-29T10:38:42.360Z,40.97
2019-05-29T10:41:28.653Z,42.74
2019-05-29T10:44:14.908Z,44.64
2019-05-29T10:47:02.068Z,43.29
2019-05-29T10:49:49.753Z,44.65
2019-05-29T10:52:36.052Z,41.00
2019-05-29T10:55:22.917Z,40.28
2019-05-29T10:58:09.079Z,37.50
2019-05-29T11:00:55.645Z,41.60
2019-05-29T11:03:41.944Z,41.33
2019-05-29T11:06:27.946Z,43.55
2019-05-29T11:09:14.184Z,39.99
2019-05-29T11:12:00.569Z,42.81
2019-05-29T11:14:46.574Z,41.34
2019-05-29T11:17:32.682Z,41.65
2019-05-29T11:20:19.026Z,41.57
2019-05-29T11:23:05.056Z,40.09
2019-05-29T11:25:52.080Z,39.29
2019-05-29T11:28:38.416Z,38.68
2019-05-29T11:31:24.716Z,38.60
2019-05-29T11:34:10.832Z,41.26
2019-05-29T11:36:56.925Z,41.55
2019-05-29T11:39:43.192Z,40.66
2019-05-29T11:42:29.227Z,41.10
2019-05-29T11:45:15.741Z,41.06
2019-05-29T11:48:05.306Z,40.95
2019-05-29T11:50:52.137Z,43.60
2019-05-29T11:53:38.666Z,41.59
2019-05-29T11:56:24.633Z,40.51
2019-05-29T11:59:10.911Z,41.58
2019-05-29T12:01:58.584Z,39.20
2019-05-29T12:04:55.472Z,39.79
2019-05-29T12:07:41.718Z,40.55
2019-05-29T12:10:27.821Z,42.99
2019-05-29T12:13:14.050Z,41.02
2019-05-29T12:16:02.622Z,44.09
2019-05-29T12:18:48.991Z,43.68
2019-05-29T12:21:35.651Z,42.27
2019-05-29T12:24:21.914Z,42.91
2019-05-29T12:27:08.078Z,42.05
2019-05-29T12:29:54.675Z,41.48
2019-05-29T12:32:40.648Z,40.69
2019-05-29T12:35:26.770Z,40.05
2019-05-29T12:38:12.810Z,40.56
2019-05-29T12:40:59.812Z,40.56
2019-05-29T12:43:46.217Z,41.14
2019-05-29T12:46:32.149Z,42.46
2019-05-29T12:49:18.674Z,41.52
2019-05-29T12:52:07.660Z,40.48
2019-05-29T12:54:53.847Z,38.48
2019-05-29T12:57:40.009Z,41.17
2019-05-29T13:00:26.219Z,40.78
2019-05-29T13:03:13.821Z,44.12
2019-05-29T13:06:00.531Z,40.53
2019-05-29T13:08:46.869Z,41.11
2019-05-29T13:11:32.889Z,41.88
2019-05-29T13:14:22.089Z,44.93
2019-05-29T13:17:08.663Z,42.48
2019-05-29T13:19:59.545Z,40.30
2019-05-29T13:22:43.051Z,41.14
2019-05-29T13:25:29.309Z,41.65
2019-05-29T13:28:15.570Z,40.66
2019-05-29T13:31:02.003Z,45.63
2019-05-29T13:33:49.098Z,42.26
2019-05-29T13:36:35.411Z,41.05
2019-05-29T13:39:21.489Z,44.04
2019-05-29T13:42:11.815Z,44.05
2019-05-29T13:44:59.085Z,44.34
2019-05-29T13:47:44.230Z,42.35
2019-05-29T13:50:30.808Z,43.07
2019-05-29T13:53:16.980Z,42.76
2019-05-29T13:56:04.281Z,41.25
2019-05-29T13:58:50.929Z,42.56
2019-05-29T14:01:37.531Z,42.74
2019-05-29T14:04:23.769Z,42.16
2019-05-29T14:07:10.249Z,43.14
2019-05-29T14:09:56.569Z,45.06
2019-05-29T14:12:42.649Z,45.51
2019-05-29T14:15:28.945Z,48.16
2019-05-29T14:18:15.514Z,42.51
2019-05-29T14:21:03.006Z,45.22
2019-05-29T14:23:49.789Z,43.00
2019-05-29T14:26:36.210Z,43.83
2019-05-29T14:29:22.351Z,44.22
2019-05-29T14:32:09.549Z,43.16
2019-05-29T14:34:55.809Z,44.33
2019-05-29T14:37:41.829Z,42.37
2019-05-29T14:40:27.954Z,43.22
2019-05-29T14:43:15.637Z,42.53
2019-05-29T14:46:02.054Z,42.55
2019-05-29T14:48:58.973Z,43.34
2019-05-29T14:51:45.229Z,44.12
2019-05-29T14:54:41.368Z,44.77
2019-05-29T14:57:26.017Z,43.41
2019-05-29T15:00:20.982Z,43.92
2019-05-29T15:02:59.248Z,43.60
2019-05-29T15:05:46.751Z,42.76
2019-05-29T15:08:34.291Z,43.30
2019-05-29T15:11:20.308Z,44.90
2019-05-29T15:14:06.528Z,42.62
2019-05-29T15:16:53.075Z,41.47
2019-05-29T15:19:40.290Z,41.42
2019-05-29T15:22:26.568Z,43.80
2019-05-29T15:25:22.969Z,42.84
2019-05-29T15:28:01.531Z,44.97
2019-05-29T15:30:47.994Z,43.36
2019-05-29T15:33:34.471Z,43.86
2019-05-29T15:36:20.669Z,42.59
2019-05-29T15:39:08.514Z,43.65
2019-05-29T15:41:55.029Z,42.24
2019-05-29T15:44:41.310Z,43.21
2019-05-29T15:47:27.398Z,41.55
2019-05-29T15:50:16.209Z,42.61
2019-05-29T15:53:02.968Z,41.54
2019-05-29T15:55:49.128Z,40.53
2019-05-29T15:58:35.352Z,41.39
2019-05-29T16:01:22.651Z,40.94
2019-05-29T16:04:09.623Z,47.35
2019-05-29T16:06:56.072Z,47.96
2019-05-29T16:09:42.368Z,44.73
2019-05-29T16:12:31.053Z,45.48
2019-05-29T16:15:17.562Z,45.30
2019-05-29T16:18:05.167Z,44.75
2019-05-29T16:20:52.027Z,44.64
2019-05-29T16:23:38.082Z,44.64
2019-05-29T16:26:24.281Z,44.86
2019-05-29T16:29:10.511Z,44.33
2019-05-29T16:31:56.612Z,43.42
2019-05-29T16:34:43.046Z,44.57
2019-05-29T16:37:29.107Z,44.19
2019-05-29T16:40:18.267Z,45.83
2019-05-29T16:43:04.380Z,45.44
2019-05-29T16:45:50.676Z,47.45
2019-05-29T16:48:36.800Z,45.75
2019-05-29T16:51:23.181Z,43.75
2019-05-29T16:54:09.026Z,44.83
2019-05-29T16:56:55.498Z,43.83
2019-05-29T16:59:42.892Z,45.18
2019-05-29T17:02:29.033Z,43.57
2019-05-29T17:05:15.760Z,43.80
2019-05-29T17:08:02.350Z,44.90
2019-05-29T17:10:49.477Z,46.29
2019-05-29T17:13:35.562Z,45.53
2019-05-29T17:16:22.627Z,43.48
2019-05-29T17:19:09.007Z,44.98
2019-05-29T17:21:55.136Z,46.60
2019-05-29T17:24:41.562Z,44.18
2019-05-29T17:27:27.361Z,45.80
2019-05-29T17:30:17.131Z,46.35
2019-05-29T17:33:03.536Z,45.77
2019-05-29T17:35:49.855Z,45.67
2019-05-29T17:38:36.084Z,44.88
2019-05-29T17:41:23.257Z,47.90
2019-05-29T17:44:09.546Z,45.04
2019-05-29T17:46:57.059Z,47.25
2019-05-29T17:49:43.304Z,46.21
2019-05-29T17:52:29.494Z,45.59
2019-05-29T17:55:19.086Z,46.66
2019-05-29T17:58:04.946Z,46.05
2019-05-29T18:00:51.475Z,45.68
2019-05-29T18:03:37.581Z,45.66
2019-05-29T18:06:24.562Z,45.82
2019-05-29T18:09:10.887Z,46.56
2019-05-29T18:11:56.974Z,47.68
2019-05-29T18:14:43.154Z,46.85
2019-05-29T18:17:29.346Z,47.34
2019-05-29T18:20:17.922Z,47.09
2019-05-29T18:23:04.322Z,49.58
2019-05-29T18:25:50.196Z,49.57
2019-05-29T18:28:36.250Z,50.20
2019-05-29T18:31:22.809Z,49.27
2019-05-29T18:34:08.546Z,47.76
2019-05-29T18:36:54.865Z,48.29
2019-05-29T18:39:41.200Z,48.90
2019-05-29T18:42:29.073Z,48.49
2019-05-29T18:45:20.798Z,49.75
2019-05-29T18:48:04.971Z,49.45
2019-05-29T18:50:50.839Z,48.78
2019-05-29T18:53:36.836Z,49.95
2019-05-29T18:56:24.002Z,49.18
2019-05-29T18:59:10.085Z,50.05
2019-05-29T19:01:56.324Z,49.78
2019-05-29T19:04:42.658Z,51.33
2019-05-29T19:07:29.750Z,51.17
2019-05-29T19:10:16.518Z,51.86
2019-05-29T19:13:03.129Z,52.06
2019-05-29T19:15:49.245Z,51.58
2019-05-29T19:18:35.524Z,55.29
2019-05-29T19:21:22.314Z,53.30
2019-05-29T19:24:08.902Z,53.89
2019-05-29T19:26:54.977Z,54.40
2019-05-29T19:29:41.016Z,54.87
2019-05-29T19:32:27.395Z,55.78
2019-05-29T19:35:13.986Z,54.34
2019-05-29T19:38:00.086Z,54.77
2019-05-29T19:40:46.243Z,57.76
2019-05-29T19:43:32.470Z,54.89
2019-05-29T19:46:21.447Z,55.61
2019-05-29T19:49:07.791Z,55.83
2019-05-29T19:51:53.832Z,56.23
2019-05-29T19:54:40.195Z,55.36
2019-05-29T19:57:28.118Z,54.81
2019-05-29T20:00:23.057Z,55.65
2019-05-29T20:03:09.295Z,56.84
2019-05-29T20:06:10.027Z,56.29
2019-05-29T20:08:58.420Z,56.22
2019-05-29T20:11:45.155Z,55.49
2019-05-29T20:14:40.256Z,55.68
2019-05-29T20:17:27.951Z,56.83
2019-05-29T20:20:15.381Z,55.85
2019-05-29T20:23:05.666Z,55.80
2019-05-29T20:25:52.263Z,56.59
2019-05-29T20:28:39.466Z,57.07
2019-05-29T20:31:25.601Z,56.74
2019-05-29T20:34:11.640Z,58.45
2019-05-29T20:36:57.895Z,59.33
2019-05-29T20:39:45.041Z,57.77
2019-05-29T20:42:32.134Z,58.15
2019-05-29T20:45:18.599Z,58.50
2019-05-29T20:48:07.620Z,57.70
2019-05-29T20:50:53.691Z,57.52
2019-05-29T20:53:40.362Z,57.06
2019-05-29T20:56:27.675Z,57.08
2019-05-29T20:59:13.920Z,59.45
2019-05-29T21:01:59.836Z,57.49
2019-05-29T21:04:48.072Z,57.26
2019-05-29T21:07:34.614Z,57.09
2019-05-29T21:10:25.266Z,57.02
2019-05-29T21:13:12.562Z,57.15
2019-05-29T21:15:59.413Z,58.57
2019-05-29T21:18:45.885Z,62.51
2019-05-29T21:21:32.162Z,58.56
2019-05-29T21:24:20.032Z,59.04
2019-05-29T21:27:06.007Z,59.43
2019-05-29T21:29:52.315Z,59.37
2019-05-29T21:32:40.188Z,59.80
2019-05-29T21:35:26.503Z,59.93
2019-05-29T21:38:14.956Z,60.47
2019-05-29T21:41:01.005Z,61.62
2019-05-29T21:43:47.246Z,60.89
2019-05-29T21:46:32.936Z,61.86
2019-05-29T21:49:19.397Z,61.55
2019-05-29T21:52:05.511Z,63.03
2019-05-29T21:54:51.551Z,61.59
2019-05-29T21:57:41.304Z,61.80
2019-05-29T22:00:35.038Z,61.64
2019-05-29T22:03:21.447Z,61.91
2019-05-29T22:06:09.019Z,61.64
2019-05-29T22:08:55.030Z,62.63
2019-05-29T22:11:41.761Z,62.29
2019-05-29T22:14:27.907Z,62.50
2019-05-29T22:17:13.997Z,62.99
2019-05-29T22:20:02.454Z,63.20
2019-05-29T22:22:48.962Z,64.50
2019-05-29T22:25:35.061Z,64.87
2019-05-29T22:28:21.243Z,64.83
2019-05-29T22:31:07.421Z,64.18
2019-05-29T22:33:53.636Z,64.91
2019-05-29T22:36:40.036Z,60.29
2019-05-29T22:39:26.141Z,57.30
2019-05-29T22:42:12.250Z,56.32
2019-05-29T22:44:59.656Z,55.50
2019-05-29T22:47:46.253Z,54.13
2019-05-29T22:50:32.397Z,53.86
2019-05-29T22:53:18.591Z,54.18
2019-05-29T22:56:05.765Z,53.80
2019-05-29T22:58:52.156Z,53.54
2019-05-29T23:01:38.309Z,53.08
2019-05-29T23:04:24.466Z,52.98
2019-05-29T23:07:10.606Z,52.60
2019-05-29T23:09:56.868Z,52.53
2019-05-29T23:12:43.065Z,52.71
2019-05-29T23:15:29.380Z,52.25
2019-05-29T23:18:15.203Z,52.63
2019-05-29T23:21:02.632Z,52.89
2019-05-29T23:23:49.235Z,52.91
2019-05-29T23:26:35.390Z,53.44
2019-05-29T23:29:21.406Z,53.27
2019-05-29T23:32:07.931Z,53.03
2019-05-29T23:34:55.074Z,52.69
2019-05-29T23:37:41.436Z,53.15
2019-05-29T23:40:27.767Z,53.11
2019-05-29T23:43:13.632Z,53.20
2019-05-29T23:45:59.765Z,52.92
2019-05-29T23:48:46.037Z,53.24
2019-05-29T23:51:32.328Z,52.78
2019-05-29T23:54:18.396Z,52.19
2019-05-29T23:57:04.696Z,52.64
